AMX304 MMTJ-MMHO
Flight info
| Callsign | AMX304 |
|---|---|
| Flight time | 0h 58m |
| Altitude | 35000 |
| Route | TEVIR2B TEVIR UT18 AVTEN AVTEN1B |
| Aircraft | B38M/M-SDE1FGHILORVWXY/HB1 |
Departure
| Time | 2026-04-30 07:28 |
|---|---|
| Airport | General Abelardo L. Rodriguez International Airport (MMTJ) |
Arrival
| Time | 2026-04-30 08:27 |
|---|---|
| Airport | General Ignacio L. Pesqueira International Airport (MMHO) |
| Time | Latitude | Longitude | Altitude | Speed | Heading |
|---|---|---|---|---|---|
| 2026-04-30 07:09 | 32.54519 | -116.97391 | 473 ft | 0 kts | 303° |
| 2026-04-30 07:15 | 32.54504 | -116.97369 | 468 ft | 4 kts | 315° |
| 2026-04-30 07:15 | 32.54483 | -116.97350 | 468 ft | 4 kts | 336° |
| 2026-04-30 07:15 | 32.54458 | -116.97344 | 471 ft | 4 kts | 6° |
| 2026-04-30 07:15 | 32.54435 | -116.97352 | 472 ft | 4 kts | 30° |
| 2026-04-30 07:16 | 32.54413 | -116.97371 | 474 ft | 4 kts | 45° |
| 2026-04-30 07:16 | 32.54396 | -116.97395 | 471 ft | 4 kts | 56° |
| 2026-04-30 07:16 | 32.54383 | -116.97423 | 469 ft | 4 kts | 70° |
| 2026-04-30 07:16 | 32.54379 | -116.97451 | 470 ft | 2 kts | 98° |
| 2026-04-30 07:17 | 32.54379 | -116.97453 | 470 ft | 1 kts | 99° |
| 2026-04-30 07:23 | 32.54378 | -116.97447 | 472 ft | 3 kts | 99° |
| 2026-04-30 07:23 | 32.54365 | -116.97412 | 472 ft | 3 kts | 135° |
| 2026-04-30 07:24 | 32.54330 | -116.97391 | 471 ft | 9 kts | 134° |
| 2026-04-30 07:24 | 32.54309 | -116.97272 | 472 ft | 21 kts | 99° |
| 2026-04-30 07:24 | 32.54280 | -116.97051 | 473 ft | 34 kts | 99° |
| 2026-04-30 07:24 | 32.54245 | -116.96784 | 474 ft | 36 kts | 99° |
| 2026-04-30 07:25 | 32.54198 | -116.96443 | 475 ft | 47 kts | 100° |
| 2026-04-30 07:25 | 32.54163 | -116.96209 | 473 ft | 20 kts | 99° |
| 2026-04-30 07:25 | 32.54137 | -116.95998 | 473 ft | 32 kts | 98° |
| 2026-04-30 07:25 | 32.54098 | -116.95694 | 475 ft | 43 kts | 98° |
| 2026-04-30 07:26 | 32.54062 | -116.95466 | 472 ft | 22 kts | 118° |
| 2026-04-30 07:26 | 32.53962 | -116.95440 | 475 ft | 15 kts | 187° |
| 2026-04-30 07:26 | 32.53904 | -116.95490 | 480 ft | 12 kts | 272° |
| 2026-04-30 07:26 | 32.53911 | -116.95530 | 474 ft | 0 kts | 280° |
| 2026-04-30 07:27 | 32.53912 | -116.95536 | 475 ft | 5 kts | 280° |
| 2026-04-30 07:28 | 32.53970 | -116.95978 | 480 ft | 103 kts | 278° |
| 2026-04-30 07:28 | 32.54121 | -116.97147 | 538 ft | 178 kts | 278° |
| 2026-04-30 07:28 | 32.54356 | -116.98745 | 1069 ft | 209 kts | 280° |
| 2026-04-30 07:28 | 32.54459 | -117.00471 | 2278 ft | 214 kts | 259° |
| 2026-04-30 07:29 | 32.53827 | -117.02106 | 3293 ft | 228 kts | 231° |
| 2026-04-30 07:29 | 32.52865 | -117.03675 | 4258 ft | 244 kts | 245° |
| 2026-04-30 07:29 | 32.52345 | -117.05662 | 5179 ft | 261 kts | 256° |
| 2026-04-30 07:29 | 32.51813 | -117.07782 | 6133 ft | 274 kts | 245° |
| 2026-04-30 07:30 | 32.48895 | -117.10458 | 8440 ft | 282 kts | 189° |
| 2026-04-30 07:30 | 32.46939 | -117.10281 | 9550 ft | 286 kts | 161° |
| 2026-04-30 07:30 | 32.45276 | -117.09015 | 10516 ft | 296 kts | 133° |
| 2026-04-30 07:31 | 32.44231 | -117.06826 | 11218 ft | 314 kts | 110° |
| 2026-04-30 07:31 | 32.43425 | -117.04342 | 11857 ft | 332 kts | 113° |
| 2026-04-30 07:31 | 32.42523 | -117.01749 | 12393 ft | 350 kts | 114° |
| 2026-04-30 07:31 | 32.41585 | -116.99045 | 12874 ft | 368 kts | 114° |
| 2026-04-30 07:32 | 32.40591 | -116.96163 | 13259 ft | 387 kts | 114° |
| 2026-04-30 07:32 | 32.39564 | -116.93158 | 13619 ft | 403 kts | 113° |
| 2026-04-30 07:32 | 32.38506 | -116.90018 | 14060 ft | 413 kts | 113° |
| 2026-04-30 07:32 | 32.37459 | -116.86855 | 14778 ft | 415 kts | 112° |
| 2026-04-30 07:33 | 32.36410 | -116.83640 | 15357 ft | 421 kts | 112° |
| 2026-04-30 07:33 | 32.35357 | -116.80392 | 15980 ft | 425 kts | 112° |
| 2026-04-30 07:33 | 32.34271 | -116.77141 | 16556 ft | 429 kts | 117° |
| 2026-04-30 07:33 | 32.32702 | -116.74127 | 17135 ft | 430 kts | 126° |
| 2026-04-30 07:34 | 32.31030 | -116.71172 | 17689 ft | 435 kts | 126° |
| 2026-04-30 07:34 | 32.29331 | -116.68205 | 18266 ft | 438 kts | 126° |
| 2026-04-30 07:34 | 32.27602 | -116.65204 | 18761 ft | 442 kts | 127° |
| 2026-04-30 07:34 | 32.25865 | -116.62198 | 19215 ft | 446 kts | 127° |
| 2026-04-30 07:35 | 32.24108 | -116.59161 | 19667 ft | 450 kts | 127° |
| 2026-04-30 07:35 | 32.22333 | -116.56095 | 20111 ft | 453 kts | 128° |
| 2026-04-30 07:35 | 32.20541 | -116.52997 | 20540 ft | 457 kts | 127° |
| 2026-04-30 07:35 | 32.19034 | -116.49654 | 20940 ft | 466 kts | 119° |
| 2026-04-30 07:36 | 32.17628 | -116.46191 | 21351 ft | 469 kts | 120° |
| 2026-04-30 07:36 | 32.16220 | -116.42708 | 21728 ft | 473 kts | 120° |
| 2026-04-30 07:36 | 32.14800 | -116.39186 | 22092 ft | 478 kts | 120° |
| 2026-04-30 07:36 | 32.13365 | -116.35626 | 22467 ft | 481 kts | 120° |
| 2026-04-30 07:37 | 32.11922 | -116.32054 | 22833 ft | 484 kts | 121° |
| 2026-04-30 07:37 | 32.10466 | -116.28448 | 23180 ft | 488 kts | 121° |
| 2026-04-30 07:37 | 32.08995 | -116.24811 | 23531 ft | 491 kts | 121° |
| 2026-04-30 07:37 | 32.07518 | -116.21163 | 23807 ft | 495 kts | 121° |
| 2026-04-30 07:38 | 32.06031 | -116.17495 | 24071 ft | 498 kts | 121° |
| 2026-04-30 07:38 | 32.04534 | -116.13803 | 24353 ft | 500 kts | 122° |
| 2026-04-30 07:38 | 32.03028 | -116.10096 | 24626 ft | 503 kts | 122° |
| 2026-04-30 07:38 | 32.01514 | -116.06369 | 24850 ft | 506 kts | 122° |
| 2026-04-30 07:39 | 31.99988 | -116.02620 | 25149 ft | 508 kts | 122° |
| 2026-04-30 07:39 | 31.98454 | -115.98855 | 25417 ft | 511 kts | 122° |
| 2026-04-30 07:39 | 31.96920 | -115.95092 | 25690 ft | 512 kts | 122° |
| 2026-04-30 07:39 | 31.95367 | -115.91291 | 25925 ft | 515 kts | 122° |
| 2026-04-30 07:40 | 31.93814 | -115.87490 | 26211 ft | 515 kts | 122° |
| 2026-04-30 07:40 | 31.92261 | -115.83691 | 26546 ft | 514 kts | 122° |
| 2026-04-30 07:40 | 31.90689 | -115.79982 | 26887 ft | 510 kts | 127° |
| 2026-04-30 07:40 | 31.88802 | -115.76475 | 27198 ft | 507 kts | 130° |
| 2026-04-30 07:41 | 31.86877 | -115.72990 | 27530 ft | 506 kts | 130° |
| 2026-04-30 07:41 | 31.84955 | -115.69539 | 27949 ft | 505 kts | 130° |
| 2026-04-30 07:41 | 31.83014 | -115.66073 | 28243 ft | 507 kts | 130° |
| 2026-04-30 07:41 | 31.81076 | -115.62610 | 28606 ft | 507 kts | 130° |
| 2026-04-30 07:42 | 31.79136 | -115.59145 | 29003 ft | 506 kts | 131° |
| 2026-04-30 07:42 | 31.77196 | -115.55684 | 29409 ft | 506 kts | 131° |
| 2026-04-30 07:42 | 31.75261 | -115.52234 | 29825 ft | 506 kts | 131° |
| 2026-04-30 07:42 | 31.73322 | -115.48782 | 30230 ft | 506 kts | 131° |
| 2026-04-30 07:43 | 31.71386 | -115.45340 | 30613 ft | 505 kts | 131° |
| 2026-04-30 07:43 | 31.69452 | -115.41901 | 31012 ft | 503 kts | 132° |
| 2026-04-30 07:43 | 31.67530 | -115.38487 | 31441 ft | 501 kts | 133° |
| 2026-04-30 07:43 | 31.65610 | -115.35076 | 31878 ft | 499 kts | 134° |
| 2026-04-30 07:44 | 31.63691 | -115.31671 | 32145 ft | 500 kts | 134° |
| 2026-04-30 07:44 | 31.61775 | -115.28282 | 32587 ft | 498 kts | 134° |
| 2026-04-30 07:44 | 31.59859 | -115.24893 | 32999 ft | 497 kts | 135° |
| 2026-04-30 07:44 | 31.57950 | -115.21518 | 33427 ft | 495 kts | 135° |
| 2026-04-30 07:45 | 31.56046 | -115.18155 | 33873 ft | 494 kts | 136° |
| 2026-04-30 07:45 | 31.54153 | -115.14811 | 34265 ft | 493 kts | 135° |
| 2026-04-30 07:45 | 31.52256 | -115.11464 | 34617 ft | 492 kts | 135° |
| 2026-04-30 07:45 | 31.50359 | -115.08123 | 34905 ft | 492 kts | 135° |
| 2026-04-30 07:46 | 31.48463 | -115.04786 | 34924 ft | 490 kts | 135° |
| 2026-04-30 07:46 | 31.44713 | -114.98192 | 34921 ft | 489 kts | 135° |
| 2026-04-30 07:47 | 31.40931 | -114.91555 | 34921 ft | 489 kts | 135° |
| 2026-04-30 07:47 | 31.37153 | -114.84934 | 34916 ft | 489 kts | 135° |
| 2026-04-30 07:48 | 31.33344 | -114.78272 | 34918 ft | 489 kts | 135° |
| 2026-04-30 07:48 | 31.29579 | -114.71698 | 34916 ft | 490 kts | 135° |
| 2026-04-30 07:49 | 31.25785 | -114.65084 | 34914 ft | 491 kts | 135° |
| 2026-04-30 07:49 | 31.21970 | -114.58444 | 34916 ft | 492 kts | 135° |
| 2026-04-30 07:50 | 31.18144 | -114.51798 | 34921 ft | 493 kts | 134° |
| 2026-04-30 07:50 | 31.14298 | -114.45128 | 34923 ft | 495 kts | 134° |
| 2026-04-30 07:51 | 31.10449 | -114.38461 | 34919 ft | 497 kts | 134° |
| 2026-04-30 07:51 | 31.06570 | -114.31759 | 34920 ft | 500 kts | 134° |
| 2026-04-30 07:52 | 31.02666 | -114.25023 | 34922 ft | 502 kts | 134° |
| 2026-04-30 07:52 | 30.98751 | -114.18281 | 34918 ft | 502 kts | 134° |
| 2026-04-30 07:53 | 30.94845 | -114.11563 | 34922 ft | 503 kts | 134° |
| 2026-04-30 07:53 | 30.90920 | -114.04826 | 34921 ft | 503 kts | 134° |
| 2026-04-30 07:54 | 30.86994 | -113.98099 | 34921 ft | 502 kts | 134° |
| 2026-04-30 07:54 | 30.83065 | -113.91377 | 34920 ft | 501 kts | 134° |
| 2026-04-30 07:55 | 30.79142 | -113.84677 | 34920 ft | 500 kts | 134° |
| 2026-04-30 07:55 | 30.75215 | -113.77981 | 34918 ft | 500 kts | 134° |
| 2026-04-30 07:56 | 30.71317 | -113.71346 | 34919 ft | 499 kts | 134° |
| 2026-04-30 07:56 | 30.67397 | -113.64687 | 34922 ft | 499 kts | 134° |
| 2026-04-30 07:57 | 30.63471 | -113.58026 | 34918 ft | 499 kts | 134° |
| 2026-04-30 07:57 | 30.59547 | -113.51381 | 34925 ft | 499 kts | 134° |
| 2026-04-30 07:58 | 30.55616 | -113.44735 | 34924 ft | 499 kts | 134° |
| 2026-04-30 07:58 | 30.51682 | -113.38094 | 34927 ft | 499 kts | 134° |
| 2026-04-30 07:59 | 30.47743 | -113.31457 | 34926 ft | 499 kts | 134° |
| 2026-04-30 07:59 | 30.43800 | -113.24823 | 34924 ft | 499 kts | 134° |
| 2026-04-30 08:00 | 30.38549 | -113.16006 | 34930 ft | 499 kts | 134° |
| 2026-04-30 08:00 | 30.34600 | -113.09389 | 34933 ft | 499 kts | 134° |
| 2026-04-30 08:01 | 30.30648 | -113.02777 | 34936 ft | 499 kts | 134° |
| 2026-04-30 08:01 | 30.26691 | -112.96168 | 34929 ft | 499 kts | 134° |
| 2026-04-30 08:02 | 30.20759 | -112.86280 | 34932 ft | 499 kts | 134° |
| 2026-04-30 08:03 | 30.12840 | -112.73118 | 34934 ft | 498 kts | 134° |
| 2026-04-30 08:04 | 30.08885 | -112.66559 | 34931 ft | 498 kts | 134° |
| 2026-04-30 08:04 | 30.04913 | -112.59985 | 34921 ft | 498 kts | 134° |
| 2026-04-30 08:05 | 30.00969 | -112.53468 | 34922 ft | 498 kts | 134° |
| 2026-04-30 08:05 | 29.97002 | -112.46920 | 34926 ft | 498 kts | 134° |
| 2026-04-30 08:06 | 29.93035 | -112.40386 | 34934 ft | 497 kts | 134° |
| 2026-04-30 08:06 | 29.89035 | -112.33808 | 34927 ft | 497 kts | 134° |
| 2026-04-30 08:07 | 29.85091 | -112.27331 | 34921 ft | 497 kts | 134° |
| 2026-04-30 08:07 | 29.81112 | -112.20808 | 34881 ft | 495 kts | 134° |
| 2026-04-30 08:07 | 29.79143 | -112.17580 | 34361 ft | 491 kts | 134° |
| 2026-04-30 08:08 | 29.77159 | -112.14336 | 33287 ft | 498 kts | 134° |
| 2026-04-30 08:08 | 29.75154 | -112.11056 | 32251 ft | 505 kts | 133° |
| 2026-04-30 08:08 | 29.73134 | -112.07754 | 31467 ft | 504 kts | 133° |
| 2026-04-30 08:08 | 29.71122 | -112.04467 | 30752 ft | 502 kts | 133° |
| 2026-04-30 08:09 | 29.69097 | -112.01163 | 29782 ft | 506 kts | 133° |
| 2026-04-30 08:09 | 29.66955 | -111.97955 | 28439 ft | 505 kts | 141° |
| 2026-04-30 08:09 | 29.64385 | -111.95224 | 27387 ft | 502 kts | 145° |
| 2026-04-30 08:09 | 29.61834 | -111.92535 | 26849 ft | 492 kts | 145° |
| 2026-04-30 08:10 | 29.59311 | -111.89907 | 26034 ft | 488 kts | 145° |
| 2026-04-30 08:10 | 29.56787 | -111.87296 | 25181 ft | 487 kts | 145° |
| 2026-04-30 08:10 | 29.54270 | -111.84697 | 24361 ft | 487 kts | 144° |
| 2026-04-30 08:10 | 29.51766 | -111.82115 | 23574 ft | 483 kts | 144° |
| 2026-04-30 08:11 | 29.49266 | -111.79540 | 22645 ft | 481 kts | 144° |
| 2026-04-30 08:11 | 29.46791 | -111.76991 | 21960 ft | 473 kts | 144° |
| 2026-04-30 08:11 | 29.44352 | -111.74481 | 21123 ft | 469 kts | 145° |
| 2026-04-30 08:11 | 29.41936 | -111.71997 | 20386 ft | 463 kts | 145° |
| 2026-04-30 08:12 | 29.39524 | -111.69518 | 19645 ft | 457 kts | 145° |
| 2026-04-30 08:12 | 29.37184 | -111.67115 | 18885 ft | 454 kts | 145° |
| 2026-04-30 08:12 | 29.34856 | -111.64724 | 18269 ft | 445 kts | 145° |
| 2026-04-30 08:12 | 29.32531 | -111.62342 | 17115 ft | 450 kts | 144° |
| 2026-04-30 08:13 | 29.30249 | -111.59998 | 16357 ft | 430 kts | 144° |
| 2026-04-30 08:13 | 29.28078 | -111.57773 | 15784 ft | 407 kts | 144° |
| 2026-04-30 08:13 | 29.25999 | -111.55644 | 15114 ft | 396 kts | 144° |
| 2026-04-30 08:13 | 29.23923 | -111.53522 | 14356 ft | 404 kts | 143° |
| 2026-04-30 08:14 | 29.21819 | -111.51370 | 13696 ft | 406 kts | 143° |
| 2026-04-30 08:14 | 29.19726 | -111.49230 | 13219 ft | 396 kts | 143° |
| 2026-04-30 08:14 | 29.17747 | -111.47204 | 13041 ft | 366 kts | 144° |
| 2026-04-30 08:14 | 29.15910 | -111.45329 | 12831 ft | 341 kts | 144° |
| 2026-04-30 08:15 | 29.14200 | -111.43585 | 12634 ft | 319 kts | 144° |
| 2026-04-30 08:15 | 29.12596 | -111.41948 | 12448 ft | 299 kts | 145° |
| 2026-04-30 08:15 | 29.11085 | -111.40407 | 12271 ft | 281 kts | 145° |
| 2026-04-30 08:15 | 29.09750 | -111.39047 | 12116 ft | 274 kts | 145° |
| 2026-04-30 08:16 | 29.08355 | -111.37468 | 11783 ft | 290 kts | 132° |
| 2026-04-30 08:16 | 29.07487 | -111.35343 | 11409 ft | 304 kts | 107° |
| 2026-04-30 08:16 | 29.07421 | -111.32899 | 11109 ft | 313 kts | 82° |
| 2026-04-30 08:16 | 29.08191 | -111.30560 | 10801 ft | 316 kts | 62° |
| 2026-04-30 08:17 | 29.09235 | -111.28355 | 10479 ft | 315 kts | 63° |
| 2026-04-30 08:17 | 29.10260 | -111.26137 | 10142 ft | 313 kts | 63° |
| 2026-04-30 08:17 | 29.11275 | -111.23952 | 9801 ft | 311 kts | 62° |
| 2026-04-30 08:17 | 29.12294 | -111.21757 | 9428 ft | 312 kts | 62° |
| 2026-04-30 08:18 | 29.13310 | -111.19569 | 9072 ft | 311 kts | 62° |
| 2026-04-30 08:18 | 29.14325 | -111.17387 | 8660 ft | 311 kts | 62° |
| 2026-04-30 08:18 | 29.15337 | -111.15207 | 8301 ft | 309 kts | 61° |
| 2026-04-30 08:18 | 29.16322 | -111.13086 | 7991 ft | 296 kts | 61° |
| 2026-04-30 08:19 | 29.17270 | -111.11043 | 7667 ft | 285 kts | 61° |
| 2026-04-30 08:19 | 29.18169 | -111.09104 | 7381 ft | 274 kts | 61° |
| 2026-04-30 08:19 | 29.19043 | -111.07215 | 7116 ft | 264 kts | 61° |
| 2026-04-30 08:19 | 29.19887 | -111.05393 | 6843 ft | 255 kts | 60° |
| 2026-04-30 08:20 | 29.20703 | -111.03632 | 6574 ft | 247 kts | 60° |
| 2026-04-30 08:20 | 29.21496 | -111.01918 | 6303 ft | 240 kts | 60° |
| 2026-04-30 08:20 | 29.22268 | -111.00252 | 6034 ft | 233 kts | 60° |
| 2026-04-30 08:20 | 29.23012 | -110.98642 | 5786 ft | 226 kts | 60° |
| 2026-04-30 08:21 | 29.23737 | -110.97070 | 5529 ft | 219 kts | 59° |
| 2026-04-30 08:21 | 29.24441 | -110.95538 | 5230 ft | 216 kts | 62° |
| 2026-04-30 08:21 | 29.24757 | -110.93877 | 4844 ft | 217 kts | 97° |
| 2026-04-30 08:21 | 29.24201 | -110.92287 | 4622 ft | 215 kts | 131° |
| 2026-04-30 08:22 | 29.23083 | -110.91227 | 4503 ft | 207 kts | 150° |
| 2026-04-30 08:22 | 29.21872 | -110.90346 | 4322 ft | 206 kts | 150° |
| 2026-04-30 08:22 | 29.20640 | -110.89480 | 4067 ft | 208 kts | 155° |
| 2026-04-30 08:22 | 29.19287 | -110.89148 | 3822 ft | 197 kts | 191° |
| 2026-04-30 08:23 | 29.18054 | -110.89709 | 3556 ft | 189 kts | 224° |
| 2026-04-30 08:23 | 29.17222 | -110.90828 | 3409 ft | 183 kts | 240° |
| 2026-04-30 08:23 | 29.16516 | -110.92019 | 3239 ft | 179 kts | 241° |
| 2026-04-30 08:23 | 29.15832 | -110.93208 | 3018 ft | 179 kts | 241° |
| 2026-04-30 08:24 | 29.15168 | -110.94401 | 2889 ft | 177 kts | 243° |
| 2026-04-30 08:24 | 29.14509 | -110.95599 | 2637 ft | 178 kts | 242° |
| 2026-04-30 08:24 | 29.13869 | -110.96764 | 2348 ft | 167 kts | 241° |
| 2026-04-30 08:24 | 29.13278 | -110.97838 | 2076 ft | 152 kts | 242° |
| 2026-04-30 08:25 | 29.12749 | -110.98845 | 1842 ft | 147 kts | 242° |
| 2026-04-30 08:25 | 29.12232 | -110.99849 | 1634 ft | 147 kts | 240° |
| 2026-04-30 08:25 | 29.11719 | -111.00837 | 1469 ft | 145 kts | 240° |
| 2026-04-30 08:25 | 29.11184 | -111.01833 | 1233 ft | 145 kts | 237° |
| 2026-04-30 08:26 | 29.10663 | -111.02782 | 1019 ft | 142 kts | 238° |
| 2026-04-30 08:26 | 29.10138 | -111.03749 | 774 ft | 142 kts | 239° |
| 2026-04-30 08:26 | 29.09634 | -111.04693 | 646 ft | 132 kts | 238° |
| 2026-04-30 08:26 | 29.09242 | -111.05427 | 640 ft | 74 kts | 239° |
| 2026-04-30 08:27 | 29.09078 | -111.05728 | 631 ft | 18 kts | 238° |
| 2026-04-30 08:27 | 29.08997 | -111.05881 | 633 ft | 29 kts | 239° |
| 2026-04-30 08:27 | 29.08877 | -111.06108 | 622 ft | 20 kts | 236° |
| 2026-04-30 08:27 | 29.08787 | -111.06227 | 624 ft | 19 kts | 185° |
| 2026-04-30 08:28 | 29.08725 | -111.06109 | 624 ft | 24 kts | 91° |
| 2026-04-30 08:28 | 29.08756 | -111.05969 | 630 ft | 13 kts | 59° |
| 2026-04-30 08:28 | 29.08820 | -111.05845 | 637 ft | 22 kts | 59° |
| 2026-04-30 08:28 | 29.08863 | -111.05764 | 637 ft | 0 kts | 56° |
| 2026-04-30 08:29 | 29.08874 | -111.05745 | 641 ft | 7 kts | 56° |
| 2026-04-30 08:29 | 29.08911 | -111.05677 | 646 ft | 12 kts | 59° |
| 2026-04-30 08:29 | 29.08959 | -111.05587 | 646 ft | 17 kts | 58° |
| 2026-04-30 08:29 | 29.09013 | -111.05489 | 642 ft | 0 kts | 58° |
| 2026-04-30 08:30 | 29.09022 | -111.05472 | 644 ft | 4 kts | 58° |
| 2026-04-30 08:30 | 29.09041 | -111.05437 | 643 ft | 6 kts | 58° |
| 2026-04-30 08:30 | 29.09066 | -111.05390 | 644 ft | 8 kts | 59° |
| 2026-04-30 08:31 | 29.09070 | -111.05381 | 644 ft | 0 kts | 59° |
| 2026-04-30 08:31 | 29.09080 | -111.05359 | 645 ft | 2 kts | 71° |
| 2026-04-30 08:31 | 29.09066 | -111.05336 | 644 ft | 7 kts | 140° |
| 2026-04-30 08:32 | 29.09045 | -111.05320 | 645 ft | 2 kts | 147° |
| 2026-04-30 08:32 | 29.09033 | -111.05311 | 645 ft | 2 kts | 149° |
| 2026-04-30 08:32 | 29.09029 | -111.05309 | 645 ft | 1 kts | 148° |
| 2026-04-30 08:32 | 29.09027 | -111.05307 | 645 ft | 0 kts | 149° |
| 2026-04-30 08:33 | 29.09026 | -111.05307 | 645 ft | 0 kts | 149° |